West Woodward Airport Woodward US
ICAO: KWWR
IATA: WWR
Category: Medium
Scheduled Services: No

Elevation: 2189 ft
TransAlt. 18000 ft.

Airport Communications:
AWOS 3:118.425
KANSAS CITY CNTR:126.95
CTAF/UNICOM:122.8

KWWR Zoom In..

Runways:

(A) RW 05 length 2500 ft width 60 ft
---- / hdg 52

(B) RW 17 length 5502 ft width 100 ft
---- / hdg 172

(C) RW 23 length 2500 ft width 60 ft
---- / hdg 232

(D) RW 35 length 5502 ft width 100 ft
---- / hdg 352

Location; KWWR
Day. 03 / Time. 09.55 Zulu
* Altimeter: 30.27
* Temperature: -01° c. -30.2°f.
* Wind from: 340° Speed 19 kn with Gusts up to 23 kn.
Dewpoint: -02° c.
Visibility: 3 Statute Miles.
Clouds: Overcast 500 ft.
Conditions: Light Snow.

KWWR 030955Z AUTO 34019G23KT 3SM -SN OVC005 M01/M02 A3027 RMK AO2

Going to: --> -->


Wind From 340°
Speed 19 kn.

 
 
jpsmedia worldairports.se 2020   terms of use